Time;durP1;ratioP1;P1;durP2;ratioP2;P2;SDS_P1;SDS_P2;PMS_P1;PMS_P2;Temp;Humidity;BMP_temperature;BMP_pressure;BME280_temperature;BME280_humidity;BME280_pressure;Samples;Min_cycle;Max_cycle;Signal;HPM_P1;HPM_P2
2022/10/24 00:02:31;;;;;;;21.23;15.40;;;;;;;11.96;87.44;100611.27;1641277;85;20110;-76
2022/10/24 00:05:16;;;;;;;20.88;16.37;;;;;;;11.94;87.34;100607.89;1627691;87;20932;-76
2022/10/24 00:08:01;;;;;;;23.52;15.60;;;;;;;11.95;87.33;100611.33;1640610;85;21587;-76
2022/10/24 00:10:48;;;;;;;19.05;14.55;;;;;;;11.93;87.28;100616.10;1632656;87;20930;-76
2022/10/24 00:13:33;;;;;;;19.17;14.93;;;;;;;11.91;87.27;100617.88;1632094;86;21425;-76
2022/10/24 00:16:18;;;;;;;27.02;15.28;;;;;;;11.91;87.29;100609.25;1626678;87;20970;-76
2022/10/24 00:19:03;;;;;;;21.52;15.18;;;;;;;11.91;87.33;100608.80;1618208;87;20964;-76
2022/10/24 00:21:48;;;;;;;18.12;14.07;;;;;;;11.92;87.39;100616.14;1610673;87;20960;-76
2022/10/24 00:24:33;;;;;;;23.30;15.30;;;;;;;11.92;87.35;100614.39;1634971;87;20922;-76
2022/10/24 00:27:19;;;;;;;21.70;14.28;;;;;;;11.93;87.31;100613.52;1615433;87;20905;-76
2022/10/24 00:30:05;;;;;;;16.57;13.38;;;;;;;11.94;87.31;100614.36;1624584;87;20923;-76
2022/10/24 00:32:52;;;;;;;18.17;14.05;;;;;;;11.93;87.31;100597.96;1622047;86;21807;-76
2022/10/24 00:35:36;;;;;;;18.45;13.03;;;;;;;11.95;87.32;100603.11;1625659;87;20924;-76
2022/10/24 00:38:21;;;;;;;18.67;14.10;;;;;;;11.95;87.30;100602.26;1619691;86;21346;-76
2022/10/24 00:41:08;;;;;;;18.82;13.15;;;;;;;11.96;87.33;100599.60;1631796;87;20984;-76
2022/10/24 00:44:22;;;;;;;18.25;13.72;;;;;;;11.98;87.36;100598.27;1615917;87;20931;-77
2022/10/24 00:47:16;;;;;;;16.25;13.03;;;;;;;12.00;87.34;100599.95;1610660;87;20929;-77
2022/10/24 00:50:11;;;;;;;14.47;12.43;;;;;;;12.02;87.34;100591.70;1623085;86;20922;-77
2022/10/24 00:52:56;;;;;;;17.07;12.70;;;;;;;12.05;87.38;100599.84;1630090;86;21807;-77
2022/10/24 00:55:41;;;;;;;16.42;12.85;;;;;;;12.06;87.37;100607.59;1626339;85;21529;-77
2022/10/24 00:58:30;;;;;;;19.57;12.33;;;;;;;12.09;87.37;100614.44;1636150;85;20934;-77
2022/10/24 01:01:15;;;;;;;19.20;13.68;;;;;;;12.11;87.38;100616.12;1617022;86;21503;-77
2022/10/24 01:04:00;;;;;;;17.70;13.13;;;;;;;12.15;87.39;100609.13;1627083;86;20935;-77
2022/10/24 01:07:19;;;;;;;17.45;12.13;;;;;;;12.16;87.43;100601.31;1633503;86;20966;-77
2022/10/24 01:10:33;;;;;;;19.32;13.00;;;;;;;12.20;87.41;100595.62;1603809;87;21041;-77
2022/10/24 01:13:30;;;;;;;17.95;13.53;;;;;;;12.23;87.40;100581.29;1638505;86;20914;-77
2022/10/24 01:16:36;;;;;;;;;;;;;;;12.24;87.42;100572.63;1643031;85;20979;-77
2022/10/24 01:19:51;;;;;;;19.12;12.37;;;;;;;12.26;87.46;100579.92;1636632;85;20123;-77
2022/10/24 01:23:07;;;;;;;21.02;13.25;;;;;;;12.28;87.42;100576.84;1630185;87;20935;-77
2022/10/24 01:26:12;;;;;;;19.30;12.37;;;;;;;12.29;87.44;100564.73;1622289;86;20965;-76
2022/10/24 01:29:15;;;;;;;19.73;11.93;;;;;;;12.31;87.41;100547.41;1639181;86;20938;-76
2022/10/24 01:32:18;;;;;;;16.27;12.07;;;;;;;12.30;87.39;100540.52;1629178;86;20931;-76
2022/10/24 01:35:16;;;;;;;15.50;11.08;;;;;;;12.28;87.37;100536.66;1635234;86;21409;-76
2022/10/24 01:38:40;;;;;;;16.82;12.47;;;;;;;12.28;87.40;100543.59;1635030;86;20934;-76
2022/10/24 01:41:28;;;;;;;15.28;11.55;;;;;;;12.29;87.45;100537.52;1634561;87;21030;-76
2022/10/24 01:44:27;;;;;;;22.62;11.83;;;;;;;12.29;87.40;100534.48;1640320;86;21012;-77
2022/10/24 01:47:26;;;;;;;17.70;12.37;;;;;;;12.29;87.41;100527.14;1638145;85;20930;-77
2022/10/24 01:50:13;;;;;;;17.95;11.73;;;;;;;12.29;87.41;100517.63;1646258;85;20926;-77
2022/10/24 01:52:58;;;;;;;15.40;12.03;;;;;;;12.28;87.37;100523.70;1645990;86;21065;-77
2022/10/24 01:55:44;;;;;;;14.58;10.75;;;;;;;12.28;87.41;100517.22;1632012;84;20929;-77
2022/10/24 01:58:29;;;;;;;13.40;10.10;;;;;;;12.28;87.41;100512.48;1633757;86;20963;-77
2022/10/24 02:01:18;;;;;;;21.37;11.88;;;;;;;12.28;87.42;100506.84;1640112;86;20928;-77
2022/10/24 02:04:07;;;;;;;18.20;12.20;;;;;;;12.29;87.41;100503.36;1634341;86;20930;-77
2022/10/24 02:06:53;;;;;;;17.07;11.35;;;;;;;12.29;87.43;100502.06;1628830;87;20946;-77
2022/10/24 02:09:41;;;;;;;17.73;12.18;;;;;;;12.29;87.40;100503.36;1629615;87;20980;-77
2022/10/24 02:12:28;;;;;;;19.00;12.30;;;;;;;12.30;87.43;100499.03;1620763;86;21408;-77
2022/10/24 02:15:27;;;;;;;14.07;10.95;;;;;;;12.31;87.41;100492.51;1568832;86;5001367;-77
2022/10/24 02:18:12;;;;;;;14.98;11.20;;;;;;;12.31;87.38;100485.17;1635832;85;20982;-77
2022/10/24 02:21:32;;;;;;;15.55;11.95;;;;;;;12.31;87.41;100483.44;1615540;86;20999;-77
2022/10/24 02:24:22;;;;;;;15.38;10.70;;;;;;;12.31;87.43;100474.36;1630786;86;21491;-77
2022/10/24 02:27:18;;;;;;;15.43;10.95;;;;;;;12.32;87.42;100482.99;1624455;87;21073;-76
2022/10/24 02:30:14;;;;;;;12.90;10.23;;;;;;;12.33;87.42;100501.55;1622709;87;21636;-76
2022/10/24 02:33:00;;;;;;;15.23;11.43;;;;;;;12.33;87.42;100501.55;1634232;87;22077;-76
2022/10/24 02:35:49;;;;;;;15.10;9.80;;;;;;;12.35;87.47;100506.25;1615930;86;21079;-76
2022/10/24 02:38:38;;;;;;;17.55;10.32;;;;;;;12.36;87.46;100509.25;1633872;86;21595;-76
2022/10/24 02:41:28;;;;;;;16.40;11.90;;;;;;;12.36;87.47;100508.80;1621323;86;21123;-76
2022/10/24 02:44:16;;;;;;;13.38;11.22;;;;;;;12.37;87.47;100509.21;1625257;87;235053;-76
2022/10/24 02:47:05;;;;;;;13.08;11.48;;;;;;;12.37;87.48;100506.62;1628112;86;21607;-76
2022/10/24 02:49:50;;;;;;;16.87;11.40;;;;;;;12.37;87.49;100489.77;1622037;86;21087;-76
2022/10/24 02:52:38;;;;;;;15.83;12.25;;;;;;;12.37;87.50;100484.58;1621973;87;21102;-76
2022/10/24 02:55:23;;;;;;;16.60;10.95;;;;;;;12.38;87.49;100472.47;1616330;87;20931;-76
2022/10/24 02:58:08;;;;;;;16.57;10.80;;;;;;;12.36;87.50;100456.95;1615743;86;20951;-76
2022/10/24 03:00:53;;;;;;;12.37;10.13;;;;;;;12.36;87.49;100437.95;1628725;87;21427;-76
2022/10/24 03:03:38;;;;;;;14.00;10.03;;;;;;;12.34;87.50;100428.06;1627063;86;20959;-76
2022/10/24 03:06:23;;;;;;;13.10;9.50;;;;;;;12.33;87.54;100441.47;1638930;86;20971;-76
2022/10/24 03:09:08;;;;;;;17.82;10.13;;;;;;;12.34;87.56;100456.58;1626364;86;20937;-76
2022/10/24 03:11:52;;;;;;;13.65;10.03;;;;;;;12.34;87.61;100471.69;1638778;86;20929;-76
2022/10/24 03:14:37;;;;;;;15.38;11.18;;;;;;;12.35;87.61;100453.95;1628000;85;21068;-76
2022/10/24 03:17:22;;;;;;;11.53;10.00;;;;;;;12.33;87.55;100434.98;1631029;87;20939;-76
2022/10/24 03:20:08;;;;;;;15.90;9.88;;;;;;;12.31;87.59;100435.91;1618347;87;20995;-76
2022/10/24 03:22:53;;;;;;;14.35;10.03;;;;;;;12.31;87.63;100457.95;1640385;86;21396;-76
2022/10/24 03:25:38;;;;;;;12.25;9.40;;;;;;;12.33;87.66;100449.25;1640572;86;21145;-76
2022/10/24 03:28:24;;;;;;;12.85;9.80;;;;;;;12.34;87.63;100451.39;1647326;86;20939;-76
2022/10/24 03:31:09;;;;;;;12.80;9.20;;;;;;;12.33;87.67;100458.32;1626458;85;21411;-76
2022/10/24 03:33:54;;;;;;;15.80;9.40;;;;;;;12.35;87.67;100461.73;1628272;86;21041;-76
2022/10/24 03:36:39;;;;;;;13.60;8.83;;;;;;;12.36;87.63;100474.25;1626698;85;20959;-76
2022/10/24 03:39:24;;;;;;;11.95;9.43;;;;;;;12.35;87.65;100473.84;1620436;86;20917;-76
2022/10/24 03:42:09;;;;;;;11.20;9.20;;;;;;;12.35;87.63;100469.95;1645900;85;21420;-77
2022/10/24 03:44:54;;;;;;;12.23;9.68;;;;;;;12.35;87.66;100475.98;1630700;86;20975;-77
2022/10/24 03:47:39;;;;;;;18.12;10.13;;;;;;;12.36;87.67;100471.20;1640150;86;21512;-77
2022/10/24 03:50:23;;;;;;;20.82;10.75;;;;;;;12.38;87.68;100471.17;1640179;86;21541;-77
2022/10/24 03:53:08;;;;;;;12.07;9.88;;;;;;;12.38;87.69;100464.23;1624025;86;21069;-77
2022/10/24 03:55:55;;;;;;;13.90;9.35;;;;;;;12.39;87.68;100461.20;1637698;86;21074;-76
2022/10/24 03:58:40;;;;;;;14.18;9.95;;;;;;;12.39;87.68;100454.72;1653072;86;21104;-76
2022/10/24 04:01:25;;;;;;;15.20;9.73;;;;;;;12.40;87.68;100457.27;1634385;86;22318;-76
2022/10/24 04:04:10;;;;;;;17.52;9.65;;;;;;;12.39;87.67;100456.87;1624811;86;21144;-76
2022/10/24 04:06:55;;;;;;;14.23;9.65;;;;;;;12.39;87.66;100452.98;1622087;86;21120;-76
2022/10/24 04:09:40;;;;;;;11.10;9.60;;;;;;;12.39;87.66;100463.35;1618646;86;21561;-76
2022/10/24 04:12:26;;;;;;;15.15;9.13;;;;;;;12.39;87.70;100464.65;1623998;86;21095;-76
2022/10/24 04:15:11;;;;;;;12.40;9.23;;;;;;;12.40;87.68;100462.91;1640957;85;21048;-76
2022/10/24 04:17:56;;;;;;;12.37;9.38;;;;;;;12.39;87.69;100472.42;1614338;87;21130;-76
2022/10/24 04:20:41;;;;;;;13.83;8.55;;;;;;;12.40;87.71;100471.53;1631445;87;21067;-76
2022/10/24 04:23:27;;;;;;;13.78;8.65;;;;;;;12.41;87.71;100461.57;1618052;86;21107;-76
2022/10/24 04:26:14;;;;;;;9.53;8.58;;;;;;;12.40;87.71;100455.98;1624655;87;21120;-77
2022/10/24 04:28:59;;;;;;;10.10;9.03;;;;;;;12.41;87.71;100454.23;1626316;85;21662;-76
2022/10/24 04:31:44;;;;;;;13.22;8.98;;;;;;;12.42;87.74;100455.94;1628140;85;21067;-75
2022/10/24 04:34:29;;;;;;;9.53;8.60;;;;;;;12.42;87.74;100453.34;1616029;86;21082;-75
2022/10/24 04:37:14;;;;;;;10.63;8.60;;;;;;;12.44;87.72;100458.90;1625361;87;22246;-75
2022/10/24 04:40:00;;;;;;;9.03;7.87;;;;;;;12.43;87.75;100462.38;1620258;86;21067;-75
2022/10/24 04:42:45;;;;;;;9.80;8.63;;;;;;;12.45;87.76;100475.31;1630778;85;21453;-75
2022/10/24 04:45:30;;;;;;;13.28;8.68;;;;;;;12.44;87.81;100470.56;1615757;86;21023;-80
2022/10/24 04:48:15;;;;;;;13.03;8.60;;;;;;;12.46;87.79;100471.37;1638920;85;21130;-80
2022/10/24 04:51:00;;;;;;;9.40;8.03;;;;;;;12.48;87.81;100470.01;1621408;86;21116;-80
2022/10/24 04:53:46;;;;;;;12.78;8.50;;;;;;;12.49;87.83;100475.60;1637927;85;21083;-80
2022/10/24 04:56:30;;;;;;;11.18;9.55;;;;;;;12.50;87.85;100483.34;1615813;86;21077;-78
2022/10/24 04:59:16;;;;;;;18.45;10.70;;;;;;;12.53;87.84;100485.01;1632027;85;21079;-78
2022/10/24 05:02:01;;;;;;;15.65;12.28;;;;;;;12.52;87.85;100483.30;1620630;86;21679;-78
2022/10/24 05:04:46;;;;;;;13.85;12.28;;;;;;;12.53;87.88;100485.86;1634648;87;21137;-78
2022/10/24 05:07:31;;;;;;;14.70;12.13;;;;;;;12.56;87.89;100492.71;1636539;86;21077;-78
2022/10/24 05:10:17;;;;;;;17.80;13.25;;;;;;;12.58;87.91;100496.11;1656213;84;21499;-78
2022/10/24 05:13:02;;;;;;;19.70;13.83;;;;;;;12.60;87.90;100494.33;1657416;85;21058;-78
2022/10/24 05:15:47;;;;;;;17.92;14.78;;;;;;;12.63;87.92;100502.48;1665404;85;21034;-78
2022/10/24 05:18:32;;;;;;;22.17;15.75;;;;;;;12.64;87.90;100501.59;1643740;86;21107;-78
2022/10/24 05:21:17;;;;;;;18.32;15.78;;;;;;;12.64;87.89;100494.66;1620469;87;21533;-78
2022/10/24 05:24:03;;;;;;;20.37;17.67;;;;;;;12.67;87.88;100500.22;1640089;86;21559;-78
2022/10/24 05:26:48;;;;;;;22.22;18.48;;;;;;;12.66;87.89;100490.28;1641330;86;21109;-77
2022/10/24 05:29:33;;;;;;;25.77;19.35;;;;;;;12.68;87.90;100487.65;1625761;86;21201;-77
2022/10/24 05:32:20;;;;;;;27.42;19.23;;;;;;;12.68;87.88;100490.24;1639890;86;21513;-77
2022/10/24 05:35:08;;;;;;;24.27;20.10;;;;;;;12.68;87.90;100492.84;1626431;85;21077;-77
2022/10/24 05:37:52;;;;;;;26.77;20.68;;;;;;;12.68;87.89;100492.84;1640450;85;22176;-77
2022/10/24 05:40:38;;;;;;;33.05;21.42;;;;;;;12.67;87.92;100493.28;1624521;86;21118;-77
2022/10/24 05:43:22;;;;;;;24.82;16.85;;;;;;;12.68;87.94;100488.95;1639940;86;21454;-77
2022/10/24 05:46:09;;;;;;;16.85;12.95;;;;;;;12.69;87.95;100493.24;1630977;85;21062;-77
2022/10/24 05:48:53;;;;;;;21.27;13.30;;;;;;;12.69;87.97;100489.34;1643924;86;21452;-77
2022/10/24 05:51:38;;;;;;;19.50;11.65;;;;;;;12.69;87.99;100482.86;1622338;85;313013;-77
2022/10/24 05:54:23;;;;;;;14.87;11.70;;;;;;;12.70;87.99;100485.86;1642128;85;21093;-77
2022/10/24 05:57:08;;;;;;;13.35;10.28;;;;;;;12.72;87.99;100485.38;1610625;87;21088;-77
2022/10/24 05:59:54;;;;;;;16.07;11.20;;;;;;;12.73;87.99;100493.56;1549796;87;5001538;-77
2022/10/24 06:02:39;;;;;;;11.40;9.65;;;;;;;12.74;87.99;100493.52;1615433;86;21515;-77
2022/10/24 06:05:24;;;;;;;12.88;8.63;;;;;;;12.77;87.99;100497.78;1631971;86;21001;-77
2022/10/24 06:08:10;;;;;;;10.05;8.95;;;;;;;12.77;88.01;100495.19;1606437;87;20985;-77
2022/10/24 06:10:55;;;;;;;12.03;8.35;;;;;;;12.78;87.99;100495.14;1618481;87;20977;-77
2022/10/24 06:13:40;;;;;;;10.82;8.70;;;;;;;12.79;88.00;100490.36;1607838;87;21564;-77
2022/10/24 06:16:26;;;;;;;10.80;8.45;;;;;;;12.80;88.02;100495.95;1614546;85;21616;-77
2022/10/24 06:19:10;;;;;;;9.10;8.20;;;;;;;12.81;88.03;100495.51;1631788;86;20932;-77
2022/10/24 06:21:55;;;;;;;11.00;8.68;;;;;;;12.83;88.04;100493.28;1606893;88;21006;-77
2022/10/24 06:24:40;;;;;;;11.12;9.35;;;;;;;12.85;88.06;100496.69;1632492;87;20946;-77
2022/10/24 06:27:25;;;;;;;16.00;8.45;;;;;;;12.90;88.05;100503.90;1642007;86;20973;-77
2022/10/24 06:30:11;;;;;;;14.70;8.65;;;;;;;12.95;88.09;100502.48;1613786;87;20957;-77
2022/10/24 06:32:56;;;;;;;9.73;8.68;;;;;;;13.00;88.08;100503.65;1634575;87;20897;-77
2022/10/24 06:35:41;;;;;;;10.03;7.80;;;;;;;13.06;88.10;100506.05;1639389;86;21434;-77
2022/10/24 06:38:27;;;;;;;14.17;9.47;;;;;;;13.10;88.11;100505.91;1606478;87;21096;-77
2022/10/24 06:41:16;;;;;;;9.50;8.08;;;;;;;13.16;88.09;100510.12;1625068;86;21037;-77
2022/10/24 06:44:02;;;;;;;9.98;8.88;;;;;;;13.20;88.10;100510.44;1628787;87;21008;-77
2022/10/24 06:46:47;;;;;;;11.18;8.43;;;;;;;13.23;88.09;100509.05;1629669;86;20940;-77
2022/10/24 06:49:32;;;;;;;13.32;7.78;;;;;;;13.24;88.07;100506.41;1633956;86;21352;-77
2022/10/24 06:52:17;;;;;;;8.18;7.40;;;;;;;13.29;88.09;100512.77;1627425;86;21450;-77
2022/10/24 06:55:04;;;;;;;9.83;7.67;;;;;;;13.32;88.06;100513.12;1616124;87;21116;-77
2022/10/24 06:57:49;;;;;;;8.98;8.10;;;;;;;13.35;88.08;100511.30;1611711;87;21124;-77
2022/10/24 07:00:36;;;;;;;9.70;8.48;;;;;;;13.38;88.08;100519.00;1607706;87;21100;-77
2022/10/24 07:03:21;;;;;;;9.88;7.75;;;;;;;13.42;88.10;100520.62;1615355;87;21112;-77
2022/10/24 07:06:12;;;;;;;10.08;7.97;;;;;;;13.46;88.07;100527.42;1615656;87;21549;-77
2022/10/24 07:08:59;;;;;;;11.93;8.20;;;;;;;13.48;88.08;100532.13;1613529;88;21088;-77
2022/10/24 07:11:44;;;;;;;8.83;7.62;;;;;;;13.53;88.09;100532.81;1612530;88;21096;-77
2022/10/24 07:14:29;;;;;;;13.30;8.80;;;;;;;13.57;88.09;100525.78;1602502;88;21080;-77
2022/10/24 07:17:16;;;;;;;10.32;8.83;;;;;;;13.62;88.11;100517.84;1629216;86;21125;-77
2022/10/24 07:20:01;;;;;;;9.70;8.20;;;;;;;13.66;88.13;100516.86;1598064;87;21099;-77
2022/10/24 07:22:46;;;;;;;10.55;8.20;;;;;;;13.71;88.12;100508.48;1608750;86;21149;-77
2022/10/24 07:25:31;;;;;;;9.68;8.60;;;;;;;13.76;88.09;100503.99;1614848;87;21703;-77
2022/10/24 07:28:16;;;;;;;11.65;8.83;;;;;;;13.82;88.12;100502.05;1615167;87;21152;-77
2022/10/24 07:31:02;;;;;;;9.68;8.78;;;;;;;13.88;88.08;100497.97;1629877;86;21072;-77
2022/10/24 07:33:47;;;;;;;10.75;9.00;;;;;;;13.95;88.10;100506.88;1629588;86;21135;-77
2022/10/24 07:36:32;;;;;;;12.37;9.08;;;;;;;14.02;88.10;100508.38;1600707;87;21064;-77
2022/10/24 07:39:18;;;;;;;16.13;9.13;;;;;;;14.07;88.14;100504.70;1629334;86;21288;-77
2022/10/24 07:42:03;;;;;;;9.25;8.30;;;;;;;14.15;88.13;100513.11;1608414;87;21417;-77
2022/10/24 07:44:48;;;;;;;9.33;8.43;;;;;;;14.24;88.15;100518.47;1608109;87;21056;-77
2022/10/24 07:47:33;;;;;;;8.75;7.95;;;;;;;14.33;88.12;100522.06;1614957;88;21547;-77
2022/10/24 07:50:19;;;;;;;9.67;8.67;;;;;;;14.40;88.09;100517.06;1606590;87;21663;-77
2022/10/24 07:53:04;;;;;;;10.78;8.58;;;;;;;14.51;88.09;100507.19;1605936;87;21128;-78
2022/10/24 07:55:49;;;;;;;9.18;8.00;;;;;;;14.63;88.09;100503.73;1613556;88;21140;-78
2022/10/24 07:58:35;;;;;;;9.70;7.45;;;;;;;14.76;88.09;100503.71;1599324;87;21132;-78
2022/10/24 08:01:23;;;;;;;11.38;7.65;;;;;;;14.87;88.07;100499.83;1620674;87;22238;-78
2022/10/24 08:04:10;;;;;;;8.78;7.08;;;;;;;14.94;87.94;100500.91;1609661;87;21593;-78
2022/10/24 08:06:55;;;;;;;8.08;7.28;;;;;;;15.01;87.99;100504.55;1616883;87;21122;-78
2022/10/24 08:09:45;;;;;;;8.33;7.05;;;;;;;15.02;87.86;100510.16;1660439;84;21555;-78
2022/10/24 08:12:30;;;;;;;10.20;8.20;;;;;;;15.08;88.01;100506.00;1647744;84;21113;-78
2022/10/24 08:15:15;;;;;;;12.90;8.35;;;;;;;15.12;88.00;100512.80;1659603;84;21096;-78
2022/10/24 08:18:01;;;;;;;10.53;7.58;;;;;;;15.12;87.88;100509.34;1653331;84;21097;-78
2022/10/24 08:20:57;;;;;;;8.45;7.65;;;;;;;15.13;87.93;100507.13;1653533;84;21605;-78
2022/10/24 08:23:46;;;;;;;12.47;8.25;;;;;;;15.14;88.00;100503.17;1650253;85;21060;-78
2022/10/24 08:26:31;;;;;;;10.18;7.97;;;;;;;15.16;87.98;100507.02;1657491;84;21431;-77
2022/10/24 08:29:21;;;;;;;10.55;8.20;;;;;;;15.17;88.00;100503.05;1648827;84;20955;-77
2022/10/24 08:32:05;;;;;;;13.48;8.33;;;;;;;15.18;87.94;100494.34;1654795;84;20970;-77
2022/10/24 08:34:50;;;;;;;11.60;8.35;;;;;;;15.21;87.98;100481.20;1658294;84;20942;-77
2022/10/24 08:37:38;;;;;;;9.35;8.28;;;;;;;15.29;88.02;100487.88;1655052;85;20982;-77
2022/10/24 08:40:22;;;;;;;10.10;8.45;;;;;;;15.35;88.06;100489.81;1655330;84;20935;-77
2022/10/24 08:43:10;;;;;;;10.58;7.92;;;;;;;15.42;87.95;100487.82;1657426;84;21353;-77
2022/10/24 08:46:22;;;;;;;9.78;8.00;;;;;;;15.45;87.85;100484.64;1658659;85;21432;-77
2022/10/24 08:49:36;;;;;;;9.93;7.72;;;;;;;15.50;87.89;100487.08;1658236;84;20982;-77
2022/10/24 08:52:44;;;;;;;13.80;7.67;;;;;;;15.61;87.99;100491.42;1653958;84;21002;-78
2022/10/24 08:55:49;;;;;;;9.83;7.37;;;;;;;15.71;87.90;100501.05;1657584;84;20930;-78
2022/10/24 08:58:44;;;;;;;9.87;6.83;;;;;;;15.76;87.84;100504.32;1652495;84;20955;-78
2022/10/24 09:01:47;;;;;;;14.45;7.42;;;;;;;15.74;87.71;100499.62;1657033;84;21050;-78
2022/10/24 09:04:55;;;;;;;10.38;7.15;;;;;;;15.73;87.69;100504.44;1652235;85;21435;-78
2022/10/24 09:07:42;;;;;;;10.60;6.90;;;;;;;15.75;87.75;100508.69;1656291;85;21467;-77
2022/10/24 09:10:41;;;;;;;7.70;6.30;;;;;;;15.80;87.79;100504.14;1662041;84;20959;-77
2022/10/24 09:13:28;;;;;;;18.37;6.90;;;;;;;15.79;87.61;100507.66;1662125;85;20942;-77
2022/10/24 09:16:20;;;;;;;10.45;6.75;;;;;;;15.80;87.65;100524.16;1659301;84;20942;-77
2022/10/24 09:19:05;;;;;;;7.87;7.08;;;;;;;15.81;87.64;100534.98;1659191;85;21569;-77
2022/10/24 09:21:53;;;;;;;10.70;6.67;;;;;;;15.84;87.64;100524.42;1655679;85;21461;-77
2022/10/24 09:24:49;;;;;;;8.93;7.03;;;;;;;15.85;87.58;100527.43;1656786;84;20986;-77
2022/10/24 09:27:39;;;;;;;13.62;7.28;;;;;;;15.86;87.58;100526.06;1655422;85;21036;-77
2022/10/24 09:30:27;;;;;;;12.68;7.37;;;;;;;15.89;87.59;100519.42;1609089;87;20989;-77
2022/10/24 09:33:34;;;;;;;8.05;7.03;;;;;;;15.92;87.46;100510.63;1633140;85;20993;-77
2022/10/24 09:36:23;;;;;;;13.62;7.08;;;;;;;15.95;87.49;100492.72;1634230;85;20952;-77
2022/10/24 09:39:31;;;;;;;10.72;7.28;;;;;;;16.00;87.40;100495.98;1640299;85;21406;-77
2022/10/24 09:42:23;;;;;;;7.97;7.00;;;;;;;16.04;87.44;100494.95;1617945;87;21025;-77
2022/10/24 09:45:20;;;;;;;15.90;7.37;;;;;;;16.07;87.39;100488.31;1635459;85;20988;-77
2022/10/24 09:48:21;;;;;;;8.13;6.60;;;;;;;16.07;87.33;100493.53;1638654;87;20941;-77
2022/10/24 09:51:07;;;;;;;7.50;6.80;;;;;;;16.08;87.34;100497.84;1621387;85;21368;-77
2022/10/24 09:54:25;;;;;;;9.23;8.08;;;;;;;16.07;87.23;100496.14;1640201;85;21001;-77
2022/10/24 09:57:16;;;;;;;14.65;6.95;;;;;;;16.06;87.22;100496.59;1632247;87;20993;-77
2022/10/24 10:00:02;;;;;;;9.63;7.55;;;;;;;16.05;87.22;100499.27;1639672;85;20985;-77
2022/10/24 10:03:05;;;;;;;9.80;8.23;;;;;;;16.05;87.26;100500.11;1621908;87;20975;-77
2022/10/24 10:05:53;;;;;;;11.68;8.88;;;;;;;16.05;87.19;100502.72;1630432;85;21517;-77
2022/10/24 10:08:39;;;;;;;13.90;9.20;;;;;;;16.02;87.20;100493.71;1608225;87;20989;-77
2022/10/24 10:11:29;;;;;;;11.78;8.83;;;;;;;16.00;87.14;100495.98;1604948;87;21017;-77
2022/10/24 10:14:21;;;;;;;9.50;8.53;;;;;;;16.01;87.23;100492.47;1612451;87;21049;-77
2022/10/24 10:17:06;;;;;;;15.25;9.00;;;;;;;16.05;87.27;100500.56;1604422;87;21406;-77
2022/10/24 10:19:53;;;;;;;9.48;8.48;;;;;;;16.09;87.26;100499.53;1607526;88;21015;-77
2022/10/24 10:22:38;;;;;;;11.33;8.88;;;;;;;16.12;87.23;100505.90;1607994;87;20964;-77
2022/10/24 10:25:30;;;;;;;12.58;9.08;;;;;;;16.17;87.20;100519.61;1608989;87;21027;-77
2022/10/24 10:28:23;;;;;;;8.88;7.97;;;;;;;16.19;87.16;100514.72;1612086;87;20994;-77
2022/10/24 10:31:10;;;;;;;11.60;7.70;;;;;;;16.20;87.04;100510.34;1607774;87;21023;-77
2022/10/24 10:34:20;;;;;;;8.68;7.30;;;;;;;16.23;87.09;100505.86;1604549;87;20945;-77
2022/10/24 10:37:22;;;;;;;13.80;7.62;;;;;;;16.32;87.18;100502.48;1607785;87;21394;-77
2022/10/24 10:40:32;;;;;;;10.72;7.30;;;;;;;16.41;87.11;100500.34;1615084;87;20945;-77
2022/10/24 10:43:34;;;;;;;15.13;7.58;;;;;;;16.45;87.00;100499.75;1566914;90;21108;-77
2022/10/24 10:46:59;;;;;;;13.98;7.30;;;;;;;16.49;87.01;100497.41;1586796;88;21041;-77
2022/10/24 10:49:47;;;;;;;11.18;7.05;;;;;;;16.51;86.89;100503.41;1576650;89;20982;-77
2022/10/24 10:52:39;;;;;;;8.15;6.97;;;;;;;16.54;86.83;100505.89;1588796;88;21552;-77
2022/10/24 10:55:35;;;;;;;7.05;6.08;;;;;;;16.59;86.87;100497.87;1563276;88;21453;-77
2022/10/24 10:58:25;;;;;;;12.20;7.17;;;;;;;16.64;86.87;100486.31;1583113;89;20973;-77
2022/10/24 11:01:43;;;;;;;12.40;7.60;;;;;;;16.75;86.91;100481.94;1583679;90;21007;-77
2022/10/24 11:04:42;;;;;;;15.43;6.70;;;;;;;16.87;86.94;100495.77;1581380;88;20943;-77
2022/10/24 11:07:38;;;;;;;11.15;6.25;;;;;;;16.99;86.84;100487.39;1587680;88;21046;-77
2022/10/24 11:10:27;;;;;;;10.28;6.10;;;;;;;17.12;86.88;100487.70;1587916;88;20957;-77
2022/10/24 11:13:26;;;;;;;13.32;6.67;;;;;;;17.24;86.89;100488.88;1611540;87;20921;-77
2022/10/24 11:16:16;;;;;;;10.50;5.92;;;;;;;17.29;86.70;100489.06;1588112;88;21413;-79
2022/10/24 11:19:06;;;;;;;8.75;5.90;;;;;;;17.36;86.77;100489.62;1617066;87;21096;-78
2022/10/24 11:21:52;;;;;;;6.08;5.47;;;;;;;17.40;86.70;100485.95;1667331;84;20935;-78
2022/10/24 11:24:42;;;;;;;11.83;5.87;;;;;;;17.44;86.59;100477.05;1662455;84;21405;-78
2022/10/24 11:27:41;;;;;;;8.88;6.37;;;;;;;17.48;86.63;100476.84;1608775;87;20965;-78
2022/10/24 11:30:43;;;;;;;9.60;6.17;;;;;;;17.53;86.62;100474.02;1606859;87;21053;-78
2022/10/24 11:33:33;;;;;;;12.63;5.72;;;;;;;17.54;86.49;100470.02;1602150;87;20949;-78
2022/10/24 11:36:23;;;;;;;5.95;5.20;;;;;;;17.59;86.51;100475.03;1601854;87;20949;-78
2022/10/24 11:39:28;;;;;;;12.10;6.20;;;;;;;17.62;86.43;100476.66;1603158;87;20953;-78
2022/10/24 11:42:50;;;;;;;6.95;5.58;;;;;;;17.63;86.44;100483.12;1586687;87;21032;-78
2022/10/24 11:45:46;;;;;;;11.40;6.45;;;;;;;17.63;86.28;100480.50;1607299;87;20945;-77
2022/10/24 11:48:59;;;;;;;11.45;6.05;;;;;;;17.61;86.29;100479.73;1614081;85;40433;-77
2022/10/24 11:51:52;;;;;;;9.00;5.47;;;;;;;17.60;86.20;100464.96;1638180;85;20930;-77
2022/10/24 11:54:57;;;;;;;8.60;5.80;;;;;;;17.56;86.20;100463.41;1627032;85;21402;-77
2022/10/24 11:57:48;;;;;;;13.57;6.33;;;;;;;17.55;86.15;100459.09;1643339;85;20960;-79
2022/10/24 12:01:12;;;;;;;9.40;6.12;;;;;;;17.58;86.21;100460.27;1629342;87;21307;-78
2022/10/24 12:04:14;;;;;;;13.40;6.12;;;;;;;17.65;86.24;100459.09;1626663;87;20928;-78
2022/10/24 12:07:33;;;;;;;15.13;5.90;;;;;;;17.75;86.15;100451.16;1632758;86;21016;-78
2022/10/24 12:10:41;;;;;;;10.50;5.37;;;;;;;17.82;86.05;100451.25;1630317;87;20965;-78
2022/10/24 12:13:52;;;;;;;10.50;6.08;;;;;;;17.86;85.98;100448.02;1631307;85;20970;-84
2022/10/24 12:17:30;;;;;;;9.73;5.37;;;;;;;17.85;85.87;100452.41;1636909;85;20933;-81
2022/10/24 12:20:19;;;;;;;9.48;6.05;;;;;;;17.90;85.95;100452.19;1611162;87;21038;-80
2022/10/24 12:23:04;;;;;;;9.90;5.78;;;;;;;17.94;85.86;100445.88;1583521;89;20989;-80
2022/10/24 12:26:06;;;;;;;8.48;5.20;;;;;;;17.99;85.85;100448.27;1602751;87;21034;-81
2022/10/24 12:29:00;;;;;;;11.73;6.17;;;;;;;18.01;85.74;100444.66;1586717;88;21081;-81
2022/10/24 12:31:45;;;;;;;8.63;5.67;;;;;;;18.04;85.67;100452.82;1612734;87;21059;-81
2022/10/24 12:34:41;;;;;;;13.90;5.47;;;;;;;18.05;85.59;100446.66;1586287;88;20971;-82
2022/10/24 12:37:33;;;;;;;9.33;5.03;;;;;;;18.06;85.54;100442.66;1611462;87;21616;-82
2022/10/24 12:41:08;;;;;;;13.70;5.42;;;;;;;18.07;85.46;100423.42;1579608;88;21445;-82
2022/10/24 12:44:24;;;;;;;8.78;5.37;;;;;;;18.10;85.46;100418.50;1585171;89;21004;-82
2022/10/24 12:47:31;;;;;;;7.65;5.37;;;;;;;18.11;85.36;100424.12;1614290;87;21003;-82
2022/10/24 12:50:28;;;;;;;10.10;5.40;;;;;;;18.10;85.35;100410.65;1601919;87;21068;-82
2022/10/24 12:53:21;;;;;;;13.15;5.70;;;;;;;18.11;85.31;100413.19;1613463;87;21088;-82
2022/10/24 12:56:11;;;;;;;9.13;5.47;;;;;;;18.09;85.24;100403.72;1632407;85;21068;-82
2022/10/24 12:59:30;;;;;;;14.55;6.10;;;;;;;18.08;85.21;100397.64;1634712;86;21104;-82
2022/10/24 13:02:26;;;;;;;9.43;5.67;;;;;;;18.07;85.17;100396.41;1557852;90;21492;-82
2022/10/24 13:05:19;;;;;;;7.40;5.33;;;;;;;18.07;85.15;100397.72;1642084;86;21043;-82
2022/10/24 13:08:34;;;;;;;6.10;5.30;;;;;;;18.07;85.10;100395.95;1627253;85;21128;-82